createdAt,value
2017-02-04T00:00:20.719Z,95.45
2017-02-04T00:01:20.699Z,95.45
2017-02-04T00:02:20.685Z,95.17
2017-02-04T00:03:20.679Z,95.65
2017-02-04T00:04:20.664Z,95.93
2017-02-04T00:05:20.651Z,95.65
2017-02-04T00:06:20.634Z,95.45
2017-02-04T00:07:20.631Z,95.65
2017-02-04T00:08:20.610Z,95.36
2017-02-04T00:09:20.597Z,95.45
2017-02-04T00:10:20.581Z,95.55
2017-02-04T00:11:20.572Z,95.55
2017-02-04T00:12:20.561Z,95.84
2017-02-04T00:13:20.549Z,95.74
2017-02-04T00:14:20.532Z,95.45
2017-02-04T00:15:20.523Z,95.74
2017-02-04T00:16:20.512Z,95.65
2017-02-04T00:17:20.500Z,95.74
2017-02-04T00:18:20.483Z,95.65
2017-02-04T00:19:20.470Z,95.45
2017-02-04T00:20:20.457Z,95.36
2017-02-04T00:21:20.444Z,95.55
2017-02-04T00:22:20.433Z,96.41
2017-02-04T00:23:20.419Z,95.74
2017-02-04T00:24:20.403Z,96.22
2017-02-04T00:25:20.394Z,96.12
2017-02-04T00:26:20.379Z,96.12
2017-02-04T00:27:20.368Z,96.12
2017-02-04T00:28:20.351Z,96.22
2017-02-04T00:29:20.344Z,95.93
2017-02-04T00:30:20.329Z,96.03
2017-02-04T00:31:20.314Z,95.93
2017-02-04T00:32:20.301Z,96.12
2017-02-04T00:33:20.287Z,96.12
2017-02-04T00:34:20.277Z,96.12
2017-02-04T00:35:20.262Z,96.31
2017-02-04T00:36:20.251Z,96.12
2017-02-04T00:37:20.241Z,96.12
2017-02-04T00:38:20.225Z,96.88
2017-02-04T00:39:20.211Z,96.12
2017-02-04T00:40:20.200Z,96.31
2017-02-04T00:41:20.189Z,96.31
2017-02-04T00:42:20.178Z,96.12
2017-02-04T00:43:20.163Z,95.93
2017-02-04T00:44:20.150Z,96.03
2017-02-04T00:45:20.141Z,96.12
2017-02-04T00:46:20.124Z,96.03
2017-02-04T00:47:20.116Z,96.12
2017-02-04T00:48:20.096Z,96.5
2017-02-04T00:49:20.084Z,96.69
2017-02-04T00:50:20.072Z,96.88
2017-02-04T00:51:20.057Z,96.78
2017-02-04T00:52:20.047Z,96.69
2017-02-04T00:53:20.029Z,96.97
2017-02-04T00:54:20.021Z,96.5
2017-02-04T00:55:20.007Z,96.41
2017-02-04T00:56:19.996Z,96.78
2017-02-04T00:57:19.984Z,96.78
2017-02-04T00:58:19.968Z,96.5
2017-02-04T00:59:19.959Z,96.55
2017-02-04T01:00:19.942Z,96.97
2017-02-04T01:01:19.928Z,96.88
2017-02-04T01:02:19.922Z,97.21
2017-02-04T01:03:19.905Z,97.26
2017-02-04T01:04:19.893Z,97.26
2017-02-04T01:05:19.880Z,96.88
2017-02-04T01:06:19.868Z,97.16
2017-02-04T01:07:19.852Z,97.16
2017-02-04T01:08:19.839Z,97.45
2017-02-04T01:09:19.825Z,96.97
2017-02-04T01:10:19.428Z,97.07
2017-02-04T01:11:19.802Z,96.69
2017-02-04T01:12:19.789Z,96.69
2017-02-04T01:13:19.776Z,96.78
2017-02-04T01:14:19.762Z,96.78
2017-02-04T01:15:19.751Z,96.78
2017-02-04T01:16:19.739Z,96.78
2017-02-04T01:17:19.725Z,96.41
2017-02-04T01:18:19.711Z,96.69
2017-02-04T01:19:19.698Z,96.69
2017-02-04T01:20:19.684Z,97.26
2017-02-04T01:21:19.671Z,97.11
2017-02-04T01:22:19.664Z,97.21
2017-02-04T01:23:19.643Z,97.45
2017-02-04T01:24:19.635Z,97.45
2017-02-04T01:25:19.620Z,97.54
2017-02-04T01:26:19.606Z,97.73
2017-02-04T01:27:19.594Z,97.45
2017-02-04T01:28:19.580Z,97.26
2017-02-04T01:29:19.571Z,97.26
2017-02-04T01:30:19.557Z,97.73
2017-02-04T01:31:19.543Z,97.73
2017-02-04T01:32:19.527Z,98.02
2017-02-04T01:33:19.525Z,97.92
2017-02-04T01:34:19.507Z,97.83
2017-02-04T01:35:19.106Z,97.54
2017-02-04T01:36:19.478Z,98.02
2017-02-04T01:37:19.463Z,97.73
2017-02-04T01:38:19.805Z,97.73
2017-02-04T01:39:19.439Z,97.92
2017-02-04T01:40:19.425Z,97.64
2017-02-04T01:41:19.411Z,97.64
2017-02-04T01:42:19.400Z,97.87
2017-02-04T01:43:19.388Z,97.97
2017-02-04T01:44:19.379Z,98.02
2017-02-04T01:45:19.363Z,97.3
2017-02-04T01:46:19.350Z,97.68
2017-02-04T01:47:19.338Z,97.78
2017-02-04T01:48:19.324Z,97.59
2017-02-04T01:49:19.307Z,97.68
2017-02-04T01:50:19.297Z,98.06
2017-02-04T01:51:19.284Z,98.06
2017-02-04T01:52:19.273Z,97.97
2017-02-04T01:53:19.259Z,97.49
2017-02-04T01:54:19.244Z,97.87
2017-02-04T01:55:19.231Z,97.78
2017-02-04T01:56:19.221Z,97.87
2017-02-04T01:57:19.203Z,97.68
2017-02-04T01:58:19.189Z,97.68
2017-02-04T01:59:19.179Z,98.16
2017-02-04T02:00:19.167Z,97.78
2017-02-04T02:01:19.159Z,97.4
2017-02-04T02:02:19.143Z,97.49
2017-02-04T02:03:19.127Z,97.97
2017-02-04T02:04:19.113Z,97.87
2017-02-04T02:05:19.099Z,98.16
2017-02-04T02:06:19.088Z,98.16
2017-02-04T02:07:19.077Z,97.78
2017-02-04T02:08:19.064Z,98.16
2017-02-04T02:09:19.050Z,98.06
2017-02-04T02:10:19.037Z,98.16
2017-02-04T02:11:19.032Z,98.16
2017-02-04T02:12:19.011Z,97.68
2017-02-04T02:13:18.999Z,97.68
2017-02-04T02:14:18.983Z,97.68
2017-02-04T02:15:18.975Z,98.06
2017-02-04T02:16:18.958Z,97.87
2017-02-04T02:17:18.947Z,98.25
2017-02-04T02:18:18.930Z,98.16
2017-02-04T02:19:18.917Z,98.16
2017-02-04T02:20:18.908Z,97.87
2017-02-04T02:21:18.895Z,97.87
2017-02-04T02:22:18.877Z,97.97
2017-02-04T02:23:18.866Z,98.16
2017-02-04T02:24:18.857Z,97.87
2017-02-04T02:25:18.840Z,98.06
2017-02-04T02:26:18.828Z,97.78
2017-02-04T02:27:18.819Z,98.16
2017-02-04T02:28:18.802Z,97.78
2017-02-04T02:29:18.790Z,97.97
2017-02-04T02:30:18.776Z,98.35
2017-02-04T02:31:18.760Z,98.16
2017-02-04T02:32:18.748Z,98.06
2017-02-04T02:33:18.736Z,97.68
2017-02-04T02:34:18.720Z,97.59
2017-02-04T02:35:18.706Z,97.4
2017-02-04T02:36:18.692Z,97.78
2017-02-04T02:37:18.681Z,97.59
2017-02-04T02:38:18.668Z,97.59
2017-02-04T02:39:18.657Z,97.49
2017-02-04T02:40:18.652Z,97.21
2017-02-04T02:41:18.630Z,97.78
2017-02-04T02:42:18.620Z,97.78
2017-02-04T02:43:18.600Z,97.11
2017-02-04T02:44:18.591Z,97.4
2017-02-04T02:45:18.573Z,97.3
2017-02-04T02:46:18.563Z,97.4
2017-02-04T02:47:18.548Z,97.4
2017-02-04T02:48:18.534Z,97.11
2017-02-04T02:49:18.523Z,97.02
2017-02-04T02:50:18.512Z,97.21
2017-02-04T02:51:18.494Z,96.83
2017-02-04T02:52:18.479Z,97.02
2017-02-04T02:53:18.468Z,97.02
2017-02-04T02:54:18.457Z,97.21
2017-02-04T02:55:18.441Z,97.21
2017-02-04T02:56:18.428Z,97.02
2017-02-04T02:57:18.423Z,97.21
2017-02-04T02:58:18.403Z,97.4
2017-02-04T02:59:18.391Z,97.59
2017-02-04T03:00:18.375Z,97.49
2017-02-04T03:01:18.363Z,97.49
2017-02-04T03:02:18.350Z,97.21
2017-02-04T03:03:18.336Z,97.4
2017-02-04T03:04:18.325Z,97.21
2017-02-04T03:05:18.311Z,97.02
2017-02-04T03:06:18.294Z,97.49
2017-02-04T03:07:18.288Z,97.4
2017-02-04T03:08:18.267Z,97.11
2017-02-04T03:09:18.263Z,97.4
2017-02-04T03:10:18.241Z,97.21
2017-02-04T03:11:18.236Z,97.21
2017-02-04T03:12:18.221Z,97.21
2017-02-04T03:13:18.200Z,97.3
2017-02-04T03:14:18.189Z,96.64
2017-02-04T03:15:18.175Z,97.02
2017-02-04T03:16:18.164Z,97.02
2017-02-04T03:17:18.155Z,96.83
2017-02-04T03:18:18.132Z,97.21
2017-02-04T03:19:18.124Z,97.49
2017-02-04T03:20:18.115Z,97.21
2017-02-04T03:21:18.098Z,97.3
2017-02-04T03:22:18.083Z,97.11
2017-02-04T03:23:18.067Z,97.49
2017-02-04T03:24:18.054Z,96.83
2017-02-04T03:25:18.042Z,96.73
2017-02-04T03:26:18.033Z,97.11
2017-02-04T03:27:18.017Z,97.4
2017-02-04T03:28:17.998Z,96.92
2017-02-04T03:29:17.988Z,97.21
2017-02-04T03:30:17.977Z,97.21
2017-02-04T03:31:17.960Z,97.21
2017-02-04T03:32:17.947Z,97.02
2017-02-04T03:33:17.931Z,96.64
2017-02-04T03:34:17.920Z,96.55
2017-02-04T03:35:17.904Z,96.73
2017-02-04T03:36:17.891Z,96.55
2017-02-04T03:37:17.880Z,96.73
2017-02-04T03:38:17.868Z,96.64
2017-02-04T03:39:17.853Z,96.83
2017-02-04T03:40:17.836Z,96.55
2017-02-04T03:41:17.829Z,96.64
2017-02-04T03:42:17.815Z,96.92
2017-02-04T03:43:17.414Z,96.73
2017-02-04T03:44:17.788Z,96.73
2017-02-04T03:45:17.810Z,96.64
2017-02-04T03:46:17.760Z,96.64
2017-02-04T03:47:17.746Z,97.21
2017-02-04T03:48:17.736Z,97.02
2017-02-04T03:49:17.726Z,96.83
2017-02-04T03:50:17.709Z,96.64
2017-02-04T03:51:17.694Z,96.83
2017-02-04T03:52:17.683Z,97.02
2017-02-04T03:53:17.669Z,96.64
2017-02-04T03:54:17.660Z,96.83
2017-02-04T03:55:17.643Z,96.45
2017-02-04T03:56:17.630Z,96.45
2017-02-04T03:57:17.616Z,96.64
2017-02-04T03:58:17.214Z,96.73
2017-02-04T03:59:17.590Z,97.49
2017-02-04T04:00:17.579Z,97.11
2017-02-04T04:01:17.558Z,96.64
2017-02-04T04:02:17.551Z,97.4
2017-02-04T04:03:17.533Z,96.64
2017-02-04T04:04:17.522Z,96.64
2017-02-04T04:05:17.507Z,96.64
2017-02-04T04:06:17.108Z,96.73
2017-02-04T04:07:17.128Z,96.64
2017-02-04T04:08:17.467Z,96.83
2017-02-04T04:09:17.455Z,96.45
2017-02-04T04:10:17.442Z,96.36
2017-02-04T04:11:17.434Z,95.98
2017-02-04T04:12:17.417Z,95.98
2017-02-04T04:13:17.402Z,95.98
2017-02-04T04:14:17.387Z,96.26
2017-02-04T04:15:17.377Z,96.55
2017-02-04T04:16:17.364Z,96.45
2017-02-04T04:17:17.354Z,96.64
2017-02-04T04:18:17.334Z,96.55
2017-02-04T04:19:16.939Z,96.45
2017-02-04T04:20:17.305Z,96.92
2017-02-04T04:21:17.295Z,96.73
2017-02-04T04:22:17.282Z,96.55
2017-02-04T04:23:17.271Z,96.45
2017-02-04T04:24:17.255Z,96.55
2017-02-04T04:25:17.244Z,96.64
2017-02-04T04:26:17.230Z,96.55
2017-02-04T04:27:17.217Z,96.45
2017-02-04T04:28:17.203Z,96.83
2017-02-04T04:29:17.187Z,96.92
2017-02-04T04:30:17.177Z,96.26
2017-02-04T04:31:17.162Z,96.07
2017-02-04T04:32:17.150Z,96.07
2017-02-04T04:33:17.150Z,96.17
2017-02-04T04:34:17.129Z,96.07
2017-02-04T04:35:17.107Z,96.17
2017-02-04T04:36:17.094Z,96.55
2017-02-04T04:37:17.081Z,96.55
2017-02-04T04:38:17.071Z,96.45
2017-02-04T04:39:17.057Z,96.64
2017-02-04T04:40:17.044Z,96.92
2017-02-04T04:41:17.026Z,96.45
2017-02-04T04:42:17.016Z,96.55
2017-02-04T04:43:17.002Z,96.55
2017-02-04T04:44:16.604Z,96.64
2017-02-04T04:45:16.979Z,96.55
2017-02-04T04:46:16.964Z,96.55
2017-02-04T04:47:16.950Z,96.45
2017-02-04T04:48:16.937Z,96.45
2017-02-04T04:49:16.921Z,96.64
2017-02-04T04:50:16.909Z,96.45
2017-02-04T04:51:16.895Z,96.55
2017-02-04T04:52:16.883Z,96.64
2017-02-04T04:53:16.868Z,96.45
2017-02-04T04:54:16.854Z,96.83
2017-02-04T04:55:16.844Z,96.26
2017-02-04T04:56:16.832Z,96.45
2017-02-04T04:57:16.815Z,96.07
2017-02-04T04:58:16.802Z,95.88
2017-02-04T04:59:16.790Z,95.98
2017-02-04T05:00:16.777Z,96.83
2017-02-04T05:01:16.764Z,96.07
2017-02-04T05:02:16.749Z,96.73
2017-02-04T05:03:16.740Z,96.73
2017-02-04T05:04:16.724Z,96.26
2017-02-04T05:05:16.712Z,96.92
2017-02-04T05:06:16.696Z,96.55
2017-02-04T05:07:16.685Z,96.36
2017-02-04T05:08:16.668Z,95.88
2017-02-04T05:09:16.656Z,96.73
2017-02-04T05:10:16.644Z,96.36
2017-02-04T05:11:16.629Z,96.83
2017-02-04T05:12:16.616Z,96.83
2017-02-04T05:13:16.607Z,96.83
2017-02-04T05:14:16.591Z,96.07
2017-02-04T05:15:16.575Z,96.26
2017-02-04T05:16:16.563Z,96.73
2017-02-04T05:17:16.552Z,96.55
2017-02-04T05:18:16.538Z,96.55
2017-02-04T05:19:16.525Z,96.55
2017-02-04T05:20:16.513Z,96.55
2017-02-04T05:21:16.500Z,96.36
2017-02-04T05:22:16.484Z,96.55
2017-02-04T05:23:16.471Z,96.92
2017-02-04T05:24:16.456Z,97.02
2017-02-04T05:25:16.453Z,96.92
2017-02-04T05:26:16.432Z,96.73
2017-02-04T05:27:16.420Z,96.73
2017-02-04T05:28:16.405Z,96.64
2017-02-04T05:29:16.391Z,96.83
2017-02-04T05:30:16.377Z,97.02
2017-02-04T05:31:16.365Z,97.02
2017-02-04T05:32:16.350Z,97.02
2017-02-04T05:33:16.342Z,96.83
2017-02-04T05:34:16.322Z,96.92
2017-02-04T05:35:16.309Z,96.45
2017-02-04T05:36:16.295Z,96.92
2017-02-04T05:37:16.287Z,96.64
2017-02-04T05:38:16.273Z,97.02
2017-02-04T05:39:15.868Z,96.73
2017-02-04T05:40:16.248Z,96.73
2017-02-04T05:41:15.844Z,97.11
2017-02-04T05:42:16.217Z,97.02
2017-02-04T05:43:16.206Z,97.21
2017-02-04T05:44:16.188Z,97.02
2017-02-04T05:45:16.175Z,97.02
2017-02-04T05:46:16.163Z,97.21
2017-02-04T05:47:15.763Z,97.02
2017-02-04T05:48:16.137Z,96.83
2017-02-04T05:49:16.126Z,97.4
2017-02-04T05:50:15.724Z,96.55
2017-02-04T05:51:15.711Z,97.4
2017-02-04T05:52:16.084Z,96.83
2017-02-04T05:53:16.065Z,96.92
2017-02-04T05:54:16.059Z,97.02
2017-02-04T05:55:16.042Z,97.4
2017-02-04T05:56:16.027Z,96.64
2017-02-04T05:57:16.014Z,97.02
2017-02-04T05:58:16.002Z,97.21
2017-02-04T05:59:15.989Z,97.21
2017-02-04T06:00:15.975Z,97.02
2017-02-04T06:01:15.963Z,97.02
2017-02-04T06:02:15.946Z,97.21
2017-02-04T06:03:15.935Z,97.02
2017-02-04T06:04:15.925Z,96.83
2017-02-04T06:05:15.907Z,96.64
2017-02-04T06:06:15.895Z,96.64
2017-02-04T06:07:15.883Z,97.11
2017-02-04T06:08:15.870Z,96.55
2017-02-04T06:09:15.864Z,96.92
2017-02-04T06:10:15.842Z,96.64
2017-02-04T06:11:15.826Z,96.92
2017-02-04T06:12:15.816Z,96.83
2017-02-04T06:13:15.799Z,96.64
2017-02-04T06:14:15.791Z,96.73
2017-02-04T06:15:15.772Z,96.64
2017-02-04T06:16:15.762Z,96.73
2017-02-04T06:17:15.748Z,96.92
2017-02-04T06:18:15.733Z,96.55
2017-02-04T06:19:15.722Z,96.73
2017-02-04T06:20:15.709Z,96.92
2017-02-04T06:21:15.692Z,96.73
2017-02-04T06:22:15.680Z,96.83
2017-02-04T06:23:15.668Z,96.73
2017-02-04T06:24:15.655Z,96.45
2017-02-04T06:25:15.643Z,96.83
2017-02-04T06:26:15.627Z,97.02
2017-02-04T06:27:15.616Z,96.73
2017-02-04T06:28:15.600Z,96.45
2017-02-04T06:29:15.586Z,96.64
2017-02-04T06:30:15.573Z,96.64
2017-02-04T06:31:15.562Z,96.73
2017-02-04T06:32:15.548Z,96.92
2017-02-04T06:33:15.536Z,97.49
2017-02-04T06:34:15.520Z,96.55
2017-02-04T06:35:15.506Z,96.83
2017-02-04T06:36:15.492Z,96.64
2017-02-04T06:37:15.479Z,96.83
2017-02-04T06:38:15.471Z,96.83
2017-02-04T06:39:15.455Z,97.3
2017-02-04T06:40:15.442Z,97.02
2017-02-04T06:41:15.432Z,97.02
2017-02-04T06:42:15.414Z,96.55
2017-02-04T06:43:15.401Z,96.64
2017-02-04T06:44:15.386Z,96.55
2017-02-04T06:45:15.374Z,96.73
2017-02-04T06:46:15.358Z,97.49
2017-02-04T06:47:15.349Z,97.02
2017-02-04T06:48:15.333Z,97.02
2017-02-04T06:49:15.319Z,97.11
2017-02-04T06:50:15.306Z,97.21
2017-02-04T06:51:15.291Z,97.02
2017-02-04T06:52:15.283Z,97.49
2017-02-04T06:53:15.267Z,97.49
2017-02-04T06:54:15.253Z,97.49
2017-02-04T06:55:15.240Z,97.4
2017-02-04T06:56:15.227Z,97.49
2017-02-04T06:57:15.246Z,96.83
2017-02-04T06:58:15.201Z,97.4
2017-02-04T06:59:15.190Z,97.4
2017-02-04T07:00:15.174Z,97.21
2017-02-04T07:01:15.164Z,97.4
2017-02-04T07:02:15.147Z,97.21
2017-02-04T07:03:15.135Z,97.4
2017-02-04T07:04:14.734Z,97.3
2017-02-04T07:05:15.107Z,97.78
2017-02-04T07:06:15.093Z,97.3
2017-02-04T07:07:15.084Z,97.68
2017-02-04T07:08:15.069Z,97.59
2017-02-04T07:09:15.057Z,97.4
2017-02-04T07:10:15.039Z,97.21
2017-02-04T07:11:15.028Z,97.3
2017-02-04T07:12:15.011Z,97.4
2017-02-04T07:13:14.998Z,97.4
2017-02-04T07:14:14.989Z,97.21
2017-02-04T07:15:14.972Z,97.21
2017-02-04T07:16:14.961Z,97.21
2017-02-04T07:17:14.944Z,97.3
2017-02-04T07:18:14.547Z,97.21
2017-02-04T07:19:14.918Z,97.3
2017-02-04T07:20:14.913Z,97.21
2017-02-04T07:21:14.894Z,97.49
2017-02-04T07:22:14.881Z,97.21
2017-02-04T07:23:14.867Z,97.4
2017-02-04T07:24:14.856Z,97.49
2017-02-04T07:25:14.840Z,97.78
2017-02-04T07:26:14.828Z,97.21
2017-02-04T07:27:14.816Z,97.59
2017-02-04T07:28:14.810Z,96.92
2017-02-04T07:29:14.793Z,97.16
2017-02-04T07:30:14.778Z,96.55
2017-02-04T07:31:14.767Z,96.78
2017-02-04T07:32:14.749Z,96.55
2017-02-04T07:33:14.734Z,96.31
2017-02-04T07:34:14.721Z,96.45
2017-02-04T07:35:14.710Z,96.55
2017-02-04T07:36:14.699Z,96.45
2017-02-04T07:37:14.686Z,96.69
2017-02-04T07:38:14.669Z,96.69
2017-02-04T07:39:14.660Z,96.64
2017-02-04T07:40:14.666Z,96.41
2017-02-04T07:41:14.634Z,96.31
2017-02-04T07:42:14.619Z,96.31
2017-02-04T07:43:14.607Z,96.12
2017-02-04T07:44:14.595Z,96.41
2017-02-04T07:45:14.580Z,96.31
2017-02-04T07:46:14.566Z,96.41
2017-02-04T07:47:14.554Z,95.84
2017-02-04T07:48:14.540Z,95.45
2017-02-04T07:49:14.530Z,95.45
2017-02-04T07:50:14.513Z,95.45
2017-02-04T07:51:14.504Z,95.74
2017-02-04T07:52:14.489Z,95.65
2017-02-04T07:53:14.474Z,95.36
2017-02-04T07:54:14.462Z,95.26
2017-02-04T07:55:14.452Z,95.74
2017-02-04T07:56:14.438Z,95.84
2017-02-04T07:57:14.428Z,95.36
2017-02-04T07:58:14.412Z,95.45
2017-02-04T07:59:14.403Z,95.74
2017-02-04T08:00:14.393Z,94.98
2017-02-04T08:01:14.374Z,95.17
2017-02-04T08:02:14.363Z,95.26
2017-02-04T08:03:14.354Z,94.98
2017-02-04T08:04:14.338Z,94.89
2017-02-04T08:05:14.340Z,95.07
2017-02-04T08:06:13.927Z,94.32
2017-02-04T08:07:14.300Z,93.94
2017-02-04T08:08:14.289Z,94.13
2017-02-04T08:09:14.276Z,93.94
2017-02-04T08:10:13.875Z,94.32
2017-02-04T08:11:14.247Z,94.04
2017-02-04T08:12:14.236Z,93.8
2017-02-04T08:13:14.223Z,93.27
2017-02-04T08:14:14.209Z,93.99
2017-02-04T08:15:14.199Z,93.7
2017-02-04T08:16:14.187Z,93.13
2017-02-04T08:17:14.177Z,93.32
2017-02-04T08:18:14.165Z,92.85
2017-02-04T08:19:14.147Z,92.76
2017-02-04T08:20:14.139Z,92.66
2017-02-04T08:21:14.123Z,92.57
2017-02-04T08:22:14.116Z,92.38
2017-02-04T08:23:14.103Z,92.57
2017-02-04T08:24:14.091Z,92.47
2017-02-04T08:25:14.075Z,92.57
2017-02-04T08:26:13.679Z,92.57
2017-02-04T08:27:14.059Z,92.66
2017-02-04T08:28:14.043Z,92.42
2017-02-04T08:29:14.031Z,91.75
2017-02-04T08:30:14.021Z,91.85
2017-02-04T08:31:14.012Z,91.19
2017-02-04T08:32:13.999Z,90.9
2017-02-04T08:33:13.984Z,90.62
2017-02-04T08:34:13.972Z,89.95
2017-02-04T08:35:13.965Z,89.95
2017-02-04T08:36:13.952Z,90.05
2017-02-04T08:37:13.940Z,90.52
2017-02-04T08:38:13.927Z,90.43
2017-02-04T08:39:13.915Z,90.14
2017-02-04T08:40:13.932Z,90.05
2017-02-04T08:41:13.893Z,89.86
2017-02-04T08:42:13.884Z,89.86
2017-02-04T08:43:13.489Z,89.67
2017-02-04T08:44:13.862Z,89.29
2017-02-04T08:45:13.850Z,88.62
2017-02-04T08:46:13.839Z,88.43
2017-02-04T08:47:13.826Z,88.62
2017-02-04T08:48:13.816Z,88.91
2017-02-04T08:49:13.804Z,89.29
2017-02-04T08:50:13.789Z,89.39
2017-02-04T08:51:13.782Z,88.91
2017-02-04T08:52:13.770Z,88.62
2017-02-04T08:53:13.760Z,88.91
2017-02-04T08:54:13.748Z,89.39
2017-02-04T08:55:13.734Z,89.39
2017-02-04T08:56:13.724Z,88.91
2017-02-04T08:57:13.716Z,88.43
2017-02-04T08:58:13.701Z,88.34
2017-02-04T08:59:13.692Z,88.91
2017-02-04T09:00:13.678Z,88.81
2017-02-04T09:01:13.671Z,88.43
2017-02-04T09:02:13.658Z,88.81
2017-02-04T09:03:13.646Z,88.72
2017-02-04T09:04:13.637Z,88.62
2017-02-04T09:05:13.623Z,88.81
2017-02-04T09:06:13.226Z,88.91
2017-02-04T09:07:13.602Z,88.53
2017-02-04T09:08:13.587Z,88.43
2017-02-04T09:09:13.580Z,88.81
2017-02-04T09:10:13.567Z,88.91
2017-02-04T09:11:13.558Z,87.96
2017-02-04T09:12:13.544Z,88.15
2017-02-04T09:13:13.538Z,87.96
2017-02-04T09:14:13.526Z,88.15
2017-02-04T09:15:13.512Z,87.87
2017-02-04T09:16:13.501Z,88.24
2017-02-04T09:17:13.488Z,88.34
2017-02-04T09:18:13.511Z,88.15
2017-02-04T09:19:13.469Z,88.06
2017-02-04T09:20:13.454Z,87.77
2017-02-04T09:21:13.443Z,87.68
2017-02-04T09:22:13.467Z,87.96
2017-02-04T09:23:13.424Z,88.15
2017-02-04T09:24:13.413Z,87.77
2017-02-04T09:25:13.403Z,88.1
2017-02-04T09:26:13.394Z,88.29
2017-02-04T09:27:13.382Z,88.29
2017-02-04T09:28:13.369Z,87.62
2017-02-04T09:29:13.355Z,87.24
2017-02-04T09:30:13.347Z,87.53
2017-02-04T09:31:13.336Z,87.15
2017-02-04T09:32:13.329Z,86.96
2017-02-04T09:33:13.313Z,86.77
2017-02-04T09:34:13.302Z,86.3
2017-02-04T09:35:13.291Z,86.77
2017-02-04T09:36:13.284Z,86.68
2017-02-04T09:37:13.270Z,86.3
2017-02-04T09:38:13.262Z,85.77
2017-02-04T09:39:13.251Z,85.35
2017-02-04T09:40:13.241Z,84.97
2017-02-04T09:41:13.231Z,85.63
2017-02-04T09:42:13.218Z,86.11
2017-02-04T09:43:13.206Z,86.68
2017-02-04T09:44:13.195Z,86.3
2017-02-04T09:45:13.189Z,85.77
2017-02-04T09:46:13.177Z,85.53
2017-02-04T09:47:13.169Z,85.3
2017-02-04T09:48:12.768Z,85.68
2017-02-04T09:49:13.144Z,85.3
2017-02-04T09:50:13.136Z,85.58
2017-02-04T09:51:13.124Z,85.01
2017-02-04T09:52:13.115Z,84.63
2017-02-04T09:53:13.105Z,84.82
2017-02-04T09:54:13.096Z,84.63
2017-02-04T09:55:13.083Z,84.82
2017-02-04T09:56:13.071Z,85.01
2017-02-04T09:57:13.061Z,84.91
2017-02-04T09:58:13.055Z,84.82
2017-02-04T09:59:13.045Z,84.63
2017-02-04T10:00:13.031Z,84.72
2017-02-04T10:01:13.024Z,84.82
2017-02-04T10:02:13.013Z,84.72
2017-02-04T10:03:13.002Z,85.01
2017-02-04T10:04:12.994Z,84.25
2017-02-04T10:05:12.983Z,84.25
2017-02-04T10:06:12.979Z,84.44
2017-02-04T10:07:12.961Z,84.25
2017-02-04T10:08:12.981Z,84.25
2017-02-04T10:09:12.946Z,83.87
2017-02-04T10:10:12.935Z,84.16
2017-02-04T10:11:12.923Z,84.63
2017-02-04T10:12:12.915Z,84.44
2017-02-04T10:13:12.904Z,84.34
2017-02-04T10:14:12.891Z,84.44
2017-02-04T10:15:12.883Z,84.63
2017-02-04T10:16:12.874Z,83.87
2017-02-04T10:17:12.861Z,84.25
2017-02-04T10:18:12.851Z,84.25
2017-02-04T10:19:12.841Z,84.34
2017-02-04T10:20:12.830Z,84.34
2017-02-04T10:21:12.822Z,84.06
2017-02-04T10:22:12.812Z,84.25
2017-02-04T10:23:12.804Z,84.34
2017-02-04T10:24:12.796Z,83.68
2017-02-04T10:25:12.778Z,83.39
2017-02-04T10:26:12.772Z,83.2
2017-02-04T10:27:12.762Z,83.2
2017-02-04T10:28:12.755Z,82.92
2017-02-04T10:29:12.744Z,83.01
2017-02-04T10:30:12.731Z,83.49
2017-02-04T10:31:12.334Z,83.72
2017-02-04T10:32:12.713Z,83.72
2017-02-04T10:33:12.700Z,83.72
2017-02-04T10:34:12.694Z,83.72
2017-02-04T10:35:12.684Z,82.96
2017-02-04T10:36:12.290Z,82.68
2017-02-04T10:37:12.276Z,81.77
2017-02-04T10:38:12.654Z,81.29
2017-02-04T10:39:12.646Z,81.48
2017-02-04T10:40:12.249Z,80.82
2017-02-04T10:41:12.240Z,80.91
2017-02-04T10:42:12.619Z,80.82
2017-02-04T10:43:12.608Z,80.72
2017-02-04T10:44:12.597Z,80.63
2017-02-04T10:45:12.590Z,80.63
2017-02-04T10:46:12.582Z,81.1
2017-02-04T10:47:12.605Z,80.34
2017-02-04T10:48:12.563Z,79.96
2017-02-04T10:49:12.557Z,80.44
2017-02-04T10:50:12.545Z,79.96
2017-02-04T10:51:12.538Z,79.96
2017-02-04T10:52:12.527Z,79.49
2017-02-04T10:53:12.517Z,79.05
2017-02-04T10:54:12.508Z,78.67
2017-02-04T10:55:12.499Z,78.38
2017-02-04T10:56:12.493Z,78.38
2017-02-04T10:57:12.485Z,78.53
2017-02-04T10:58:12.475Z,78.91
2017-02-04T10:59:12.467Z,79.01
2017-02-04T11:00:12.457Z,79.11
2017-02-04T11:01:12.449Z,79.01
2017-02-04T11:02:12.050Z,79.24
2017-02-04T11:03:12.431Z,79.11
2017-02-04T11:04:12.420Z,78.82
2017-02-04T11:05:12.412Z,78.72
2017-02-04T11:06:12.409Z,79.68
2017-02-04T11:07:12.396Z,79.58
2017-02-04T11:08:12.388Z,79.77
2017-02-04T11:09:12.379Z,79.11
2017-02-04T11:10:12.371Z,79.11
2017-02-04T11:11:11.972Z,78.82
2017-02-04T11:12:12.349Z,79.01
2017-02-04T11:13:12.339Z,79.01
2017-02-04T11:14:12.333Z,79.01
2017-02-04T11:15:12.324Z,78.82
2017-02-04T11:16:12.313Z,78.91
2017-02-04T11:17:12.307Z,79.01
2017-02-04T11:18:12.296Z,78.82
2017-02-04T11:19:12.287Z,79.11
2017-02-04T11:20:12.277Z,79.01
2017-02-04T11:21:12.270Z,79.2
2017-02-04T11:22:12.261Z,78.91
2017-02-04T11:23:12.251Z,79.77
2017-02-04T11:24:12.242Z,79.49
2017-02-04T11:25:12.238Z,79.39
2017-02-04T11:26:12.228Z,79.58
2017-02-04T11:27:12.216Z,79.68
2017-02-04T11:28:12.206Z,79.2
2017-02-04T11:29:12.198Z,79.96
2017-02-04T11:30:12.192Z,80.15
2017-02-04T11:31:12.180Z,79.86
2017-02-04T11:32:12.171Z,79.39
2017-02-04T11:33:12.162Z,79.49
2017-02-04T11:34:12.154Z,79.49
2017-02-04T11:35:12.145Z,79.49
2017-02-04T11:36:12.137Z,78.67
2017-02-04T11:37:12.127Z,78
2017-02-04T11:38:12.121Z,78
2017-02-04T11:39:12.110Z,78.63
2017-02-04T11:40:11.713Z,79.05
2017-02-04T11:41:12.095Z,78.86
2017-02-04T11:42:12.081Z,77.72
2017-02-04T11:43:12.078Z,78
2017-02-04T11:44:12.069Z,78.29
2017-02-04T11:45:12.063Z,78.48
2017-02-04T11:46:12.058Z,78.19
2017-02-04T11:47:12.041Z,78.1
2017-02-04T11:48:12.038Z,78.1
2017-02-04T11:49:12.025Z,77.91
2017-02-04T11:50:12.020Z,77.43
2017-02-04T11:51:12.011Z,77.91
2017-02-04T11:52:12.002Z,78.19
2017-02-04T11:53:11.997Z,78.77
2017-02-04T11:54:11.983Z,78.57
2017-02-04T11:55:11.978Z,78.67
2017-02-04T11:56:11.972Z,78.86
2017-02-04T11:57:11.993Z,78.57
2017-02-04T11:58:11.952Z,78.38
2017-02-04T11:59:11.942Z,78.29
2017-02-04T12:00:11.939Z,78.29
2017-02-04T12:01:11.924Z,78.1
2017-02-04T12:02:11.920Z,76.96
2017-02-04T12:03:11.909Z,77.34
2017-02-04T12:04:11.902Z,77.15
2017-02-04T12:05:11.897Z,77.62
2017-02-04T12:06:11.888Z,77.62
2017-02-04T12:07:11.878Z,77.15
2017-02-04T12:08:11.866Z,77.05
2017-02-04T12:09:11.862Z,77.72
2017-02-04T12:10:11.855Z,77.53
2017-02-04T12:11:11.845Z,77.53
2017-02-04T12:12:11.834Z,77.05
2017-02-04T12:13:11.826Z,77.34
2017-02-04T12:14:11.815Z,76.86
2017-02-04T12:15:11.808Z,77.24
2017-02-04T12:16:11.803Z,77.62
2017-02-04T12:17:11.791Z,77.53
2017-02-04T12:18:11.786Z,78.1
2017-02-04T12:19:11.777Z,78.38
2017-02-04T12:20:11.769Z,78.19
2017-02-04T12:21:11.758Z,78
2017-02-04T12:22:11.755Z,78.63
2017-02-04T12:23:11.742Z,78.72
2017-02-04T12:24:11.734Z,79.01
2017-02-04T12:25:11.731Z,79.11
2017-02-04T12:26:11.717Z,78.53
2017-02-04T12:27:11.708Z,78.91
2017-02-04T12:28:11.701Z,79.2
2017-02-04T12:29:11.690Z,78.63
2017-02-04T12:30:11.682Z,78.86
2017-02-04T12:31:11.672Z,78.91
2017-02-04T12:32:11.662Z,79.05
2017-02-04T12:33:11.657Z,78.72
2017-02-04T12:34:11.646Z,79.11
2017-02-04T12:35:11.634Z,79.68
2017-02-04T12:36:11.630Z,79.58
2017-02-04T12:37:11.619Z,79.68
2017-02-04T12:38:11.612Z,79.68
2017-02-04T12:39:11.601Z,79.77
2017-02-04T12:40:11.595Z,79.49
2017-02-04T12:41:11.612Z,80.15
2017-02-04T12:42:11.576Z,80.05
2017-02-04T12:43:11.567Z,80.44
2017-02-04T12:44:11.561Z,80.34
2017-02-04T12:45:11.545Z,80.72
2017-02-04T12:46:11.542Z,80.63
2017-02-04T12:47:11.530Z,80.72
2017-02-04T12:48:11.520Z,81.38
2017-02-04T12:49:11.508Z,80.91
2017-02-04T12:50:11.501Z,80.44
2017-02-04T12:51:11.492Z,80.53
2017-02-04T12:52:11.095Z,80.63
2017-02-04T12:53:11.478Z,80.53
2017-02-04T12:54:11.467Z,81.2